Time;durP1;ratioP1;P1;durP2;ratioP2;P2;SDS_P1;SDS_P2;PMS_P1;PMS_P2;Temp;Humidity;BMP_temperature;BMP_pressure;BME280_temperature;BME280_humidity;BME280_pressure;Samples;Min_cycle;Max_cycle;Signal;HPM_P1;HPM_P2
2023/01/25 00:01:59;;;;;;;12.23;9.30;;;1.70;99.90;;;;;;4904142;29;20066;-71
2023/01/25 00:04:25;;;;;;;11.05;8.18;;;1.80;99.90;;;;;;4879935;29;20084;-72
2023/01/25 00:06:51;;;;;;;11.55;9.00;;;1.80;99.90;;;;;;4906191;29;20087;-72
2023/01/25 00:09:17;;;;;;;11.88;9.18;;;1.80;99.90;;;;;;4910281;29;20054;-72
2023/01/25 00:11:44;;;;;;;11.10;7.93;;;1.80;99.90;;;;;;4889783;29;20060;-72
2023/01/25 00:14:10;;;;;;;10.38;7.68;;;1.80;99.90;;;;;;4909445;29;20156;-71
2023/01/25 00:16:37;;;;;;;7.88;6.00;;;1.80;99.90;;;;;;4907970;29;20080;-71
2023/01/25 00:19:03;;;;;;;11.90;9.27;;;1.70;99.90;;;;;;4906628;29;20056;-71
2023/01/25 00:21:29;;;;;;;12.65;9.10;;;1.80;99.90;;;;;;4890660;29;20047;-72
2023/01/25 00:23:55;;;;;;;11.35;8.38;;;1.80;99.90;;;;;;4933475;29;20043;-72
2023/01/25 00:26:21;;;;;;;11.15;8.00;;;1.70;99.90;;;;;;4930339;29;20050;-72
2023/01/25 00:28:54;;;;;;;12.95;9.07;;;1.80;99.90;;;;;;4941757;29;20039;-72
2023/01/25 00:31:46;;;;;;;9.88;7.50;;;1.70;99.90;;;;;;4927597;29;20052;-72
2023/01/25 00:34:24;;;;;;;11.00;8.05;;;1.80;99.90;;;;;;4937818;29;20043;-71
2023/01/25 00:36:49;;;;;;;17.25;11.13;;;1.70;99.90;;;;;;4946129;29;20039;-71
2023/01/25 00:39:15;;;;;;;16.63;11.70;;;1.70;99.90;;;;;;4949280;29;20418;-71
2023/01/25 00:41:42;;;;;;;19.05;13.18;;;1.70;99.90;;;;;;4946708;29;20074;-72
2023/01/25 00:44:07;;;;;;;;;;;1.70;99.90;;;;;;4932354;29;20099;-72
2023/01/25 00:46:33;;;;;;;20.60;14.13;;;1.70;99.90;;;;;;4924473;29;19923;-72
2023/01/25 00:48:58;;;;;;;16.70;11.43;;;1.70;99.90;;;;;;4946264;28;20055;-72
2023/01/25 00:51:25;;;;;;;18.90;12.38;;;1.70;99.90;;;;;;4919314;29;20070;-72
2023/01/25 00:53:51;;;;;;;16.13;11.02;;;1.70;99.90;;;;;;4940538;28;20050;-72
2023/01/25 00:56:17;;;;;;;21.92;14.65;;;1.70;99.90;;;;;;4935496;28;20043;-72
2023/01/25 00:58:43;;;;;;;23.67;15.40;;;1.70;99.90;;;;;;4931498;29;20455;-71
2023/01/25 01:01:09;;;;;;;22.15;14.63;;;1.70;99.90;;;;;;4923166;29;20082;-72
2023/01/25 01:03:35;;;;;;;;;;;1.70;99.90;;;;;;4916665;29;20463;-72
2023/01/25 01:06:03;;;;;;;21.08;12.90;;;1.70;99.90;;;;;;4940233;28;19959;-72
2023/01/25 01:08:31;;;;;;;23.48;16.25;;;1.80;99.90;;;;;;4936567;29;20122;-72
2023/01/25 01:11:02;;;;;;;19.38;13.25;;;1.80;99.90;;;;;;4946592;29;20435;-71
2023/01/25 01:13:28;;;;;;;17.95;12.48;;;1.70;99.90;;;;;;4932877;29;20044;-71
2023/01/25 01:15:55;;;;;;;16.02;10.60;;;1.70;99.90;;;;;;4935660;29;20040;-71
2023/01/25 01:18:21;;;;;;;;;;;1.70;99.90;;;;;;4933061;29;20041;-71
2023/01/25 01:20:51;;;;;;;16.38;11.27;;;1.70;99.90;;;;;;4947031;29;19927;-71
2023/01/25 01:23:18;;;;;;;13.85;9.77;;;1.70;99.90;;;;;;4936587;29;20051;-71
2023/01/25 01:25:45;;;;;;;12.93;9.57;;;1.70;99.90;;;;;;4947137;29;20097;-71
2023/01/25 01:28:10;;;;;;;13.18;9.02;;;1.70;99.90;;;;;;4944274;29;20164;-72
2023/01/25 01:30:37;;;;;;;11.48;8.55;;;1.70;99.90;;;;;;4938056;29;20476;-72
2023/01/25 01:33:03;;;;;;;13.27;9.40;;;1.60;99.90;;;;;;4923886;29;20050;-72
2023/01/25 01:35:29;;;;;;;15.55;10.35;;;1.70;99.90;;;;;;4931926;29;20055;-72
2023/01/25 01:37:55;;;;;;;17.40;13.02;;;1.70;99.90;;;;;;4940021;29;20130;-72
2023/01/25 01:40:21;;;;;;;17.85;12.68;;;1.70;99.90;;;;;;4932768;29;20118;-72
2023/01/25 01:43:00;;;;;;;20.33;14.02;;;1.70;99.90;;;;;;4943761;28;20043;-72
2023/01/25 01:45:48;;;;;;;21.45;14.52;;;1.60;99.90;;;;;;4933035;29;20415;-72
2023/01/25 01:48:40;;;;;;;23.08;15.68;;;1.60;99.90;;;;;;4939388;29;20136;-72
2023/01/25 01:51:33;;;;;;;18.83;13.07;;;1.60;99.90;;;;;;4928819;29;20052;-72
2023/01/25 01:54:12;;;;;;;18.52;13.23;;;1.60;99.90;;;;;;4920307;29;20074;-72
2023/01/25 01:56:44;;;;;;;20.35;13.82;;;1.60;99.90;;;;;;4923654;28;20093;-72
2023/01/25 01:59:10;;;;;;;26.35;17.77;;;1.60;99.90;;;;;;4918483;29;20134;-72
2023/01/25 02:01:36;;;;;;;22.15;14.27;;;1.50;99.90;;;;;;4907070;29;20122;-72
2023/01/25 02:04:06;;;;;;;20.70;13.60;;;1.50;99.90;;;;;;4929333;29;20123;-72
2023/01/25 02:06:49;;;;;;;22.38;15.38;;;1.50;99.90;;;;;;4930555;29;20371;-72
2023/01/25 02:09:21;;;;;;;19.25;12.98;;;1.50;99.90;;;;;;4924283;29;20113;-71
2023/01/25 02:11:48;;;;;;;18.13;12.80;;;1.50;99.90;;;;;;4921932;29;20051;-71
2023/01/25 02:14:15;;;;;;;16.50;11.02;;;1.60;99.90;;;;;;4919903;28;20132;-71
2023/01/25 02:16:42;;;;;;;15.60;10.82;;;1.50;99.90;;;;;;4934709;29;20487;-72
2023/01/25 02:19:16;;;;;;;16.67;11.95;;;1.60;99.90;;;;;;4928052;29;20495;-71
2023/01/25 02:21:46;;;;;;;18.98;12.65;;;1.60;99.90;;;;;;4927822;29;20093;-71
2023/01/25 02:24:19;;;;;;;15.65;10.50;;;1.70;99.90;;;;;;4920223;29;20031;-72
2023/01/25 02:26:45;;;;;;;17.27;11.00;;;1.60;99.90;;;;;;4930823;29;20509;-72
2023/01/25 02:29:12;;;;;;;19.77;12.95;;;1.60;99.90;;;;;;4927705;29;20079;-71
2023/01/25 02:31:37;;;;;;;17.55;11.93;;;1.60;99.90;;;;;;4918807;29;20537;-71
2023/01/25 02:34:03;;;;;;;16.67;11.15;;;1.60;99.90;;;;;;4929951;29;20059;-72
2023/01/25 02:36:32;;;;;;;16.67;10.80;;;1.60;99.90;;;;;;4919824;29;20393;-72
2023/01/25 02:39:04;;;;;;;15.70;10.10;;;1.70;99.90;;;;;;4933390;29;20102;-72
2023/01/25 02:41:34;;;;;;;14.68;10.07;;;1.70;99.90;;;;;;4923953;29;20039;-72
2023/01/25 02:44:03;;;;;;;21.52;13.93;;;1.70;99.90;;;;;;4920054;29;20146;-72
2023/01/25 02:46:34;;;;;;;25.63;16.95;;;1.70;99.90;;;;;;4925951;29;20117;-72
2023/01/25 02:49:01;;;;;;;24.63;15.85;;;1.60;99.90;;;;;;4915493;29;20051;-72
2023/01/25 02:51:31;;;;;;;27.25;17.27;;;1.70;99.90;;;;;;4933503;29;20047;-72
2023/01/25 02:53:57;;;;;;;22.48;14.68;;;1.70;99.90;;;;;;4927106;29;20071;-72
2023/01/25 02:56:24;;;;;;;23.40;16.23;;;1.70;99.90;;;;;;4929585;29;20165;-72
2023/01/25 02:58:49;;;;;;;;;;;1.70;99.90;;;;;;4911013;29;20145;-72
2023/01/25 03:01:16;;;;;;;30.25;19.20;;;1.70;99.90;;;;;;4926125;29;20018;-71
2023/01/25 03:03:41;;;;;;;31.55;19.35;;;1.70;99.90;;;;;;4919293;29;20487;-71
2023/01/25 03:06:07;;;;;;;29.02;18.88;;;1.70;99.90;;;;;;4922957;29;20103;-72
2023/01/25 03:08:33;;;;;;;32.13;21.08;;;1.70;99.90;;;;;;4918939;29;20141;-72
2023/01/25 03:11:01;;;;;;;41.35;25.25;;;1.70;99.90;;;;;;4913130;29;20035;-71
2023/01/25 03:13:27;;;;;;;39.42;24.48;;;1.70;99.90;;;;;;4933799;29;20111;-71
2023/01/25 03:15:59;;;;;;;37.25;23.55;;;1.70;99.90;;;;;;4931398;29;20043;-72
2023/01/25 03:18:25;;;;;;;34.38;21.45;;;1.60;99.90;;;;;;4927590;29;20043;-72
2023/01/25 03:20:51;;;;;;;32.75;21.08;;;1.70;99.90;;;;;;4926349;29;20047;-72
2023/01/25 03:23:17;;;;;;;32.03;19.87;;;1.70;99.90;;;;;;4920511;29;20047;-72
2023/01/25 03:25:42;;;;;;;30.05;18.23;;;1.70;99.90;;;;;;4921518;29;20383;-72
2023/01/25 03:28:08;;;;;;;38.83;23.50;;;1.70;99.90;;;;;;4932398;29;20053;-72
2023/01/25 03:30:34;;;;;;;37.55;23.60;;;1.70;99.90;;;;;;4926424;29;20085;-71
2023/01/25 03:33:00;;;;;;;36.50;22.05;;;1.70;99.90;;;;;;4922468;29;20098;-71
2023/01/25 03:35:25;;;;;;;37.20;22.23;;;1.70;99.90;;;;;;4926723;29;20050;-71
2023/01/25 03:37:51;;;;;;;27.15;16.73;;;1.70;99.90;;;;;;4919548;29;20559;-71
2023/01/25 03:40:17;;;;;;;36.60;22.13;;;1.70;99.90;;;;;;4922857;29;20047;-72
2023/01/25 03:42:42;;;;;;;36.60;22.42;;;1.70;99.90;;;;;;4917096;29;20491;-72
2023/01/25 03:45:08;;;;;;;39.47;23.13;;;1.70;99.90;;;;;;4912757;29;20126;-72
2023/01/25 03:47:34;;;;;;;38.15;23.20;;;1.70;99.90;;;;;;4913984;29;20051;-72
2023/01/25 03:50:00;;;;;;;32.67;19.23;;;1.70;99.90;;;;;;4946539;29;20465;-72
2023/01/25 03:56:10;;;;;;;47.60;27.60;;;1.60;99.90;;;;;;4914783;28;20091;-72
2023/01/25 03:58:37;;;;;;;45.13;26.67;;;1.50;99.90;;;;;;4932903;29;20044;-71
2023/01/25 04:01:05;;;;;;;43.83;26.05;;;1.40;99.90;;;;;;4940736;29;20051;-71
2023/01/25 04:03:31;;;;;;;42.95;24.88;;;1.50;99.90;;;;;;4940243;28;20515;-71
2023/01/25 04:05:57;;;;;;;;;;;1.40;99.90;;;;;;4949142;29;20165;-71
2023/01/25 04:08:24;;;;;;;44.72;26.85;;;1.40;99.90;;;;;;4932904;29;19918;-72
2023/01/25 04:10:55;;;;;;;37.60;22.75;;;1.40;99.90;;;;;;4942511;29;20046;-72
2023/01/25 04:13:22;;;;;;;44.10;25.70;;;1.40;99.90;;;;;;4941335;28;20047;-72
2023/01/25 04:15:49;;;;;;;34.90;21.08;;;1.40;99.90;;;;;;4942221;29;20415;-72
2023/01/25 04:18:15;;;;;;;31.95;19.45;;;1.40;99.90;;;;;;4947136;29;20047;-72
2023/01/25 04:20:41;;;;;;;30.92;18.73;;;1.40;99.90;;;;;;4934897;29;20040;-72
2023/01/25 04:23:08;;;;;;;32.00;19.13;;;1.40;99.90;;;;;;4930878;29;20053;-72
2023/01/25 04:25:33;;;;;;;;;;;1.50;99.90;;;;;;4943222;29;20040;-72
2023/01/25 04:27:59;;;;;;;45.55;26.75;;;1.50;99.90;;;;;;4928031;29;20051;-72
2023/01/25 04:30:25;;;;;;;41.23;24.47;;;1.50;99.90;;;;;;4938525;29;20058;-72
2023/01/25 04:32:50;;;;;;;42.25;25.02;;;1.50;99.90;;;;;;4938584;29;20307;-71
2023/01/25 04:35:16;;;;;;;39.60;23.88;;;1.50;99.90;;;;;;4942407;28;20047;-71
2023/01/25 04:37:42;;;;;;;38.55;23.08;;;1.50;99.90;;;;;;4927169;29;20079;-71
2023/01/25 04:40:09;;;;;;;38.25;23.17;;;1.50;99.90;;;;;;4936289;29;20407;-71
2023/01/25 04:42:35;;;;;;;40.58;24.95;;;1.50;99.90;;;;;;4944135;29;20537;-72
2023/01/25 04:45:00;;;;;;;40.40;23.83;;;1.50;99.90;;;;;;4947119;29;20035;-72
2023/01/25 04:47:26;;;;;;;42.50;25.60;;;1.50;99.90;;;;;;4947805;29;20042;-72
2023/01/25 04:49:52;;;;;;;40.40;24.58;;;1.50;99.90;;;;;;4947115;29;20051;-72
2023/01/25 04:52:17;;;;;;;44.35;25.45;;;1.50;99.90;;;;;;4924321;29;20047;-72
2023/01/25 04:54:43;;;;;;;37.58;22.25;;;1.50;99.90;;;;;;4947051;28;20093;-72
2023/01/25 04:57:09;;;;;;;35.90;20.93;;;1.50;99.90;;;;;;4943594;29;20055;-71
2023/01/25 04:59:34;;;;;;;38.00;22.43;;;1.50;99.90;;;;;;4944269;29;20315;-70
2023/01/25 05:02:00;;;;;;;30.00;17.52;;;1.50;99.90;;;;;;4921599;29;20295;-72
2023/01/25 05:04:26;;;;;;;44.37;26.37;;;1.60;99.90;;;;;;4949224;29;20402;-70
2023/01/25 05:06:52;;;;;;;43.10;25.65;;;1.60;99.90;;;;;;4937079;29;20317;-72
2023/01/25 05:09:17;;;;;;;40.77;23.23;;;1.50;99.90;;;;;;4927345;29;20491;-71
2023/01/25 05:11:43;;;;;;;37.95;22.95;;;1.60;99.90;;;;;;4942936;28;20683;-71
2023/01/25 05:14:09;;;;;;;41.25;24.33;;;1.60;99.90;;;;;;4922318;29;20824;-72
2023/01/25 05:16:34;;;;;;;41.38;24.50;;;1.60;99.90;;;;;;4938103;28;20081;-71
2023/01/25 05:19:00;;;;;;;46.20;27.58;;;1.50;99.90;;;;;;4941175;29;20078;-72
2023/01/25 05:24:10;;;;;;;42.47;25.70;;;1.50;99.90;;;;;;4932028;29;20370;-71
2023/01/25 05:29:20;;;;;;;47.03;28.38;;;1.50;99.90;;;;;;4946045;29;20338;-71
2023/01/25 05:31:45;;;;;;;51.58;30.35;;;1.50;99.90;;;;;;4942865;29;20051;-71
2023/01/25 05:34:11;;;;;;;46.43;28.53;;;1.50;99.90;;;;;;4932146;29;20048;-71
2023/01/25 05:36:36;;;;;;;48.72;27.38;;;1.50;99.90;;;;;;4934709;29;20401;-71
2023/01/25 05:39:05;;;;;;;49.63;28.73;;;1.40;99.90;;;;;;4944806;29;20058;-71
2023/01/25 05:41:31;;;;;;;46.03;26.65;;;1.40;99.90;;;;;;4946194;29;20853;-71
2023/01/25 05:43:57;;;;;;;38.35;22.65;;;1.40;99.90;;;;;;4938555;29;20126;-72
2023/01/25 05:46:22;;;;;;;48.40;28.17;;;1.40;99.90;;;;;;4942153;29;20053;-71
2023/01/25 05:48:48;;;;;;;45.60;27.42;;;1.40;99.90;;;;;;4944408;28;20039;-72
2023/01/25 05:51:14;;;;;;;40.97;23.98;;;1.40;99.90;;;;;;4930043;29;20090;-72
2023/01/25 05:53:39;;;;;;;50.38;29.63;;;1.50;99.90;;;;;;4942010;28;20049;-71
2023/01/25 05:56:07;;;;;;;44.88;25.63;;;1.40;99.90;;;;;;4931312;29;20043;-72
2023/01/25 05:58:32;;;;;;;39.05;23.23;;;1.50;99.90;;;;;;4945192;28;20031;-72
2023/01/25 06:01:00;;;;;;;45.05;26.33;;;1.40;99.90;;;;;;4949330;29;20115;-72
2023/01/25 06:03:25;;;;;;;43.67;26.08;;;1.50;99.90;;;;;;4938760;29;20190;-72
2023/01/25 06:06:02;;;;;;;51.10;28.47;;;1.40;99.90;;;;;;4948592;29;20111;-72
2023/01/25 06:08:28;;;;;;;;;;;1.40;99.90;;;;;;4943569;29;20297;-72
2023/01/25 06:10:55;;;;;;;43.35;25.05;;;1.40;99.90;;;;;;4948446;28;19918;-72
2023/01/25 06:13:21;;;;;;;40.70;23.73;;;1.40;99.90;;;;;;4943605;29;20047;-72
2023/01/25 06:15:54;;;;;;;35.70;22.20;;;1.40;99.90;;;;;;4947899;29;20437;-72
2023/01/25 06:18:21;;;;;;;47.25;27.77;;;1.40;99.90;;;;;;4929753;29;20478;-72
2023/01/25 06:20:46;;;;;;;;;;;1.40;99.90;;;;;;4945097;29;20158;-72
2023/01/25 06:23:12;;;;;;;48.85;27.48;;;1.40;99.90;;;;;;4950398;29;20037;-72
2023/01/25 06:25:38;;;;;;;50.00;29.90;;;1.40;99.90;;;;;;4944848;29;20039;-72
2023/01/25 06:28:04;;;;;;;51.72;31.08;;;1.40;99.90;;;;;;4941294;29;20040;-72
2023/01/25 06:30:30;;;;;;;54.90;31.27;;;1.40;99.90;;;;;;4943427;29;20043;-72
2023/01/25 06:32:59;;;;;;;44.75;28.00;;;1.40;99.90;;;;;;4944661;29;20062;-72
2023/01/25 06:35:25;;;;;;;44.00;26.13;;;1.40;99.90;;;;;;4926733;29;20499;-74
2023/01/25 06:37:50;;;;;;;43.10;25.92;;;1.30;99.90;;;;;;4937874;28;20086;-71
2023/01/25 06:40:16;;;;;;;45.67;25.92;;;1.30;99.90;;;;;;4944654;28;20065;-71
2023/01/25 06:42:42;;;;;;;40.90;24.02;;;1.30;99.90;;;;;;4935925;29;20082;-72
2023/01/25 06:45:09;;;;;;;37.03;22.50;;;1.30;99.90;;;;;;4945398;28;20076;-71
2023/01/25 06:47:34;;;;;;;;;;;1.30;99.90;;;;;;4932592;29;20043;-72
2023/01/25 06:50:00;;;;;;;42.58;23.70;;;1.30;99.90;;;;;;4942259;28;19993;-72
2023/01/25 06:52:25;;;;;;;41.95;24.63;;;1.30;99.90;;;;;;4922376;29;20047;-73
2023/01/25 06:54:51;;;;;;;39.92;23.85;;;1.30;99.90;;;;;;4906680;29;20087;-71
2023/01/25 06:57:17;;;;;;;40.92;23.58;;;1.30;99.90;;;;;;4925878;29;20482;-71
2023/01/25 06:59:42;;;;;;;40.53;23.85;;;1.30;99.90;;;;;;4912614;29;20102;-70
2023/01/25 07:02:14;;;;;;;43.17;25.63;;;1.30;99.90;;;;;;4930513;29;20047;-70
2023/01/25 07:04:39;;;;;;;42.17;25.20;;;1.30;99.90;;;;;;4905836;29;20362;-70
2023/01/25 07:07:08;;;;;;;39.58;23.27;;;1.30;99.90;;;;;;4925704;29;20043;-70
2023/01/25 07:09:34;;;;;;;36.65;22.30;;;1.30;99.90;;;;;;4934702;29;20502;-70
2023/01/25 07:12:00;;;;;;;31.85;20.00;;;1.30;99.90;;;;;;4935503;28;20609;-70
2023/01/25 07:14:26;;;;;;;46.78;27.65;;;1.30;99.90;;;;;;4933930;29;20078;-71
2023/01/25 07:16:52;;;;;;;44.15;26.52;;;1.30;99.90;;;;;;4922174;29;20479;-70
2023/01/25 07:19:18;;;;;;;44.45;26.65;;;1.30;99.90;;;;;;4919936;29;20055;-70
2023/01/25 07:21:45;;;;;;;47.25;29.00;;;1.30;99.90;;;;;;4921179;29;20481;-70
2023/01/25 07:24:14;;;;;;;46.15;27.58;;;1.30;99.90;;;;;;4936161;29;20047;-70
2023/01/25 07:26:39;;;;;;;46.30;26.92;;;1.30;99.90;;;;;;4936726;29;20042;-70
2023/01/25 07:29:05;;;;;;;44.35;27.00;;;1.30;99.90;;;;;;4936444;29;20146;-70
2023/01/25 07:31:31;;;;;;;43.40;26.08;;;1.20;99.90;;;;;;4936194;29;20054;-71
2023/01/25 07:33:57;;;;;;;41.65;25.55;;;1.20;99.90;;;;;;4936627;29;20050;-70
2023/01/25 07:36:24;;;;;;;43.20;26.15;;;1.20;99.90;;;;;;4936692;29;20077;-70
2023/01/25 07:38:55;;;;;;;41.28;25.42;;;1.20;99.90;;;;;;4920318;29;20518;-70
2023/01/25 07:41:22;;;;;;;39.05;24.52;;;1.10;99.90;;;;;;4932120;29;20483;-71
2023/01/25 07:43:48;;;;;;;43.38;25.80;;;1.10;99.90;;;;;;4932663;29;20040;-72
2023/01/25 07:46:15;;;;;;;31.17;19.70;;;1.10;99.90;;;;;;4924698;29;20089;-73
2023/01/25 07:48:45;;;;;;;39.70;24.85;;;1.10;99.90;;;;;;4931180;28;20066;-72
2023/01/25 07:51:11;;;;;;;38.47;24.15;;;1.10;99.90;;;;;;4945232;29;20062;-72
2023/01/25 07:53:41;;;;;;;27.40;18.02;;;1.00;99.90;;;;;;4949939;29;20535;-71
2023/01/25 07:56:10;;;;;;;33.70;21.20;;;1.00;99.90;;;;;;4935653;28;20484;-71
2023/01/25 07:58:36;;;;;;;33.70;21.73;;;0.90;99.90;;;;;;4933192;29;20066;-71
2023/01/25 08:01:10;;;;;;;31.35;20.08;;;0.90;99.90;;;;;;4917191;29;20074;-72
2023/01/25 08:03:36;;;;;;;30.33;18.75;;;0.90;99.90;;;;;;4920787;29;20047;-72
2023/01/25 08:06:05;;;;;;;35.13;22.52;;;0.90;99.90;;;;;;4930574;29;20039;-72
2023/01/25 08:08:42;;;;;;;35.72;22.33;;;0.90;99.90;;;;;;4932354;29;20047;-72
2023/01/25 08:11:17;;;;;;;33.88;21.80;;;0.90;99.90;;;;;;4945689;29;20054;-72
2023/01/25 08:13:45;;;;;;;32.97;20.75;;;1.00;99.90;;;;;;4952026;29;20047;-71
2023/01/25 08:16:17;;;;;;;37.42;24.08;;;1.00;99.90;;;;;;4951689;29;20047;-71
2023/01/25 08:18:45;;;;;;;36.10;23.27;;;1.00;99.90;;;;;;4935742;29;20043;-71
2023/01/25 08:21:11;;;;;;;31.45;20.30;;;1.00;99.90;;;;;;4945150;29;20130;-71
2023/01/25 08:23:37;;;;;;;28.73;18.92;;;1.00;99.90;;;;;;4920593;29;20051;-71
2023/01/25 08:26:08;;;;;;;32.78;21.00;;;1.00;99.90;;;;;;4932605;29;20100;-71
2023/01/25 08:28:34;;;;;;;39.58;24.88;;;1.10;99.90;;;;;;4933021;29;20118;-71
2023/01/25 08:31:13;;;;;;;;;;;1.00;99.90;;;;;;4928920;29;20048;-71
2023/01/25 08:33:41;;;;;;;41.28;26.08;;;1.00;99.90;;;;;;4932333;29;20400;-71
2023/01/25 08:36:08;;;;;;;39.05;24.20;;;0.90;99.90;;;;;;4932332;29;20059;-71
2023/01/25 08:38:34;;;;;;;41.08;24.98;;;1.00;99.90;;;;;;4935544;29;20047;-70
2023/01/25 08:41:11;;;;;;;37.28;23.98;;;1.00;99.90;;;;;;4935246;29;20053;-71
2023/01/25 08:43:37;;;;;;;41.72;26.38;;;1.00;99.90;;;;;;4951332;29;20047;-71
2023/01/25 08:46:04;;;;;;;41.10;25.27;;;1.00;99.90;;;;;;4951116;29;20050;-71
2023/01/25 08:48:31;;;;;;;41.25;25.58;;;1.00;99.90;;;;;;4945162;28;20145;-71
2023/01/25 08:50:57;;;;;;;35.25;21.67;;;1.00;99.90;;;;;;4942690;29;20051;-71
2023/01/25 08:53:23;;;;;;;35.00;21.65;;;1.00;99.90;;;;;;4928243;29;20063;-71
2023/01/25 08:55:49;;;;;;;39.38;24.27;;;1.00;99.90;;;;;;4940815;28;20055;-71
2023/01/25 08:58:18;;;;;;;40.83;24.65;;;1.10;99.90;;;;;;4937969;29;20046;-72
2023/01/25 09:00:44;;;;;;;39.40;23.90;;;1.10;99.90;;;;;;4923234;29;20440;-72
2023/01/25 09:03:10;;;;;;;39.40;23.98;;;1.10;99.90;;;;;;4936170;29;20131;-71
2023/01/25 09:05:37;;;;;;;44.13;26.80;;;1.10;99.90;;;;;;4941715;29;20126;-71
2023/01/25 09:08:05;;;;;;;40.80;24.58;;;1.00;99.90;;;;;;4943910;29;20036;-71
2023/01/25 09:10:31;;;;;;;41.22;25.05;;;1.10;99.90;;;;;;4939501;29;20051;-72
2023/01/25 09:12:56;;;;;;;41.50;25.38;;;1.20;99.90;;;;;;4941942;29;20048;-72
2023/01/25 09:15:22;;;;;;;44.67;26.77;;;1.10;99.90;;;;;;4932264;29;20058;-72
2023/01/25 09:17:55;;;;;;;46.97;28.40;;;1.10;99.90;;;;;;4946708;29;20054;-71
2023/01/25 09:20:22;;;;;;;45.25;26.50;;;1.20;99.90;;;;;;4944421;28;20086;-71
2023/01/25 09:22:48;;;;;;;47.28;26.88;;;1.20;99.90;;;;;;4935555;29;20122;-71
2023/01/25 09:25:14;;;;;;;41.87;25.20;;;1.20;99.90;;;;;;4939773;29;20122;-71
2023/01/25 09:27:40;;;;;;;45.00;27.35;;;1.20;99.90;;;;;;4941961;29;20329;-71
2023/01/25 09:30:08;;;;;;;40.88;24.58;;;1.30;99.90;;;;;;4928393;29;20591;-71
2023/01/25 09:32:34;;;;;;;40.67;23.80;;;1.20;99.90;;;;;;4960256;28;20058;-71
2023/01/25 09:34:59;;;;;;;31.13;18.40;;;1.30;99.90;;;;;;4948553;29;20044;-71
2023/01/25 09:37:25;;;;;;;47.17;26.67;;;1.30;99.90;;;;;;4919689;29;20578;-71
2023/01/25 09:39:51;;;;;;;46.17;27.00;;;1.30;99.90;;;;;;4943098;29;20047;-71
2023/01/25 09:42:38;;;;;;;46.97;27.33;;;1.30;99.90;;;;;;4949353;29;20283;-71
2023/01/25 09:45:26;;;;;;;41.75;24.80;;;1.30;99.90;;;;;;4946787;29;20370;-71
2023/01/25 09:47:51;;;;;;;43.67;25.25;;;1.30;99.90;;;;;;4938457;29;20158;-71
2023/01/25 09:50:34;;;;;;;43.30;23.63;;;1.30;99.90;;;;;;4936247;29;20083;-72
2023/01/25 09:53:11;;;;;;;44.03;25.50;;;1.30;99.90;;;;;;4930469;29;20055;-71
2023/01/25 09:55:39;;;;;;;44.92;24.52;;;1.30;99.90;;;;;;4942072;28;20047;-71
2023/01/25 09:58:14;;;;;;;47.78;26.38;;;1.30;99.90;;;;;;4920516;29;20509;-71
2023/01/25 10:00:46;;;;;;;43.97;24.33;;;1.30;99.90;;;;;;4941557;29;20044;-71
2023/01/25 10:03:17;;;;;;;43.72;25.30;;;1.30;99.90;;;;;;4951052;29;20618;-72
2023/01/25 10:05:46;;;;;;;42.05;23.42;;;1.30;99.90;;;;;;4939553;29;20062;-72
2023/01/25 10:08:38;;;;;;;42.30;23.88;;;1.40;99.90;;;;;;4951188;28;20069;-71
2023/01/25 10:11:21;;;;;;;40.90;23.63;;;1.30;99.90;;;;;;4949177;29;20074;-71
2023/01/25 10:13:48;;;;;;;46.45;25.40;;;1.40;99.90;;;;;;4941560;29;20189;-71
2023/01/25 10:16:23;;;;;;;41.63;23.58;;;1.50;99.90;;;;;;4940397;29;20137;-71
2023/01/25 10:19:13;;;;;;;40.55;23.42;;;1.50;99.90;;;;;;4935547;29;20194;-72
2023/01/25 10:21:47;;;;;;;44.20;24.10;;;1.60;99.90;;;;;;4942273;28;20410;-71
2023/01/25 10:24:23;;;;;;;44.28;24.88;;;1.60;99.90;;;;;;4938935;29;20031;-71
2023/01/25 10:26:56;;;;;;;44.42;24.92;;;1.60;99.90;;;;;;4944275;29;20047;-71
2023/01/25 10:29:32;;;;;;;47.17;26.05;;;1.60;99.90;;;;;;4946665;28;20062;-71
2023/01/25 10:32:22;;;;;;;41.88;23.83;;;1.70;99.90;;;;;;4939849;29;20047;-71
2023/01/25 10:34:49;;;;;;;46.13;24.65;;;1.70;99.90;;;;;;4943151;29;20048;-71
2023/01/25 10:37:21;;;;;;;48.67;25.40;;;1.70;99.90;;;;;;4945399;29;20474;-71
2023/01/25 10:40:12;;;;;;;40.30;23.05;;;1.80;99.90;;;;;;4950313;29;20046;-71
2023/01/25 10:42:52;;;;;;;46.47;25.05;;;1.80;99.90;;;;;;4938514;29;20051;-72
2023/01/25 10:45:18;;;;;;;40.85;23.92;;;1.90;99.90;;;;;;4934376;29;20031;-71
2023/01/25 10:47:51;;;;;;;44.08;24.85;;;1.90;99.90;;;;;;4948087;29;20039;-71
2023/01/25 10:50:42;;;;;;;45.83;24.65;;;2.00;99.90;;;;;;4948062;29;20059;-72
2023/01/25 10:53:31;;;;;;;46.45;26.48;;;2.00;99.90;;;;;;4968006;28;20051;-71
2023/01/25 10:56:10;;;;;;;44.83;25.20;;;2.10;99.90;;;;;;4938968;28;20078;-71
2023/01/25 10:58:41;;;;;;;50.03;26.35;;;2.10;99.90;;;;;;4921973;29;20135;-71
2023/01/25 11:01:13;;;;;;;45.55;25.77;;;2.20;99.90;;;;;;4939823;29;20086;-71
2023/01/25 11:03:43;;;;;;;48.70;26.98;;;2.30;99.90;;;;;;4942900;28;20138;-72
2023/01/25 11:06:09;;;;;;;44.38;25.42;;;2.20;99.90;;;;;;4938785;28;20078;-71
2023/01/25 11:08:40;;;;;;;46.28;25.75;;;2.30;99.90;;;;;;4920244;29;20043;-72
2023/01/25 11:11:32;;;;;;;46.63;26.60;;;2.30;99.90;;;;;;4948378;29;20505;-71
2023/01/25 11:13:58;;;;;;;46.33;25.98;;;2.30;99.90;;;;;;4937556;29;20076;-72
2023/01/25 11:16:31;;;;;;;46.85;25.77;;;2.30;99.90;;;;;;4932894;29;20047;-71
2023/01/25 11:18:58;;;;;;;46.15;24.92;;;2.20;99.90;;;;;;4943391;29;20134;-71
2023/01/25 11:21:34;;;;;;;44.00;23.85;;;2.30;99.90;;;;;;4934266;29;20051;-71
2023/01/25 11:24:07;;;;;;;46.90;24.55;;;2.30;99.90;;;;;;4939485;29;20043;-72
2023/01/25 11:26:37;;;;;;;44.60;24.75;;;2.30;99.90;;;;;;4940326;29;20159;-71
2023/01/25 11:29:17;;;;;;;44.17;24.45;;;2.40;99.90;;;;;;4924658;29;20078;-71
2023/01/25 11:31:54;;;;;;;43.40;23.52;;;2.40;99.90;;;;;;4950814;29;20465;-71
2023/01/25 11:34:28;;;;;;;44.60;24.65;;;2.40;99.90;;;;;;4950681;29;20039;-71
2023/01/25 11:37:15;;;;;;;47.72;26.45;;;2.40;99.90;;;;;;4949523;29;20378;-71
2023/01/25 11:39:48;;;;;;;;;;;2.40;99.90;;;;;;4943223;29;20051;-72
2023/01/25 11:42:22;;;;;;;47.60;24.08;;;2.50;99.90;;;;;;4945719;29;19926;-71
2023/01/25 11:44:48;;;;;;;42.50;23.67;;;2.50;99.90;;;;;;4943423;29;20079;-71
2023/01/25 11:47:51;;;;;;;44.87;23.00;;;2.50;99.90;;;;;;4943123;29;20093;-71
2023/01/25 11:50:48;;;;;;;41.47;21.73;;;2.50;99.90;;;;;;4939964;29;20059;-71
2023/01/25 11:53:42;;;;;;;42.95;23.00;;;2.60;99.90;;;;;;4928603;29;20047;-71
2023/01/25 11:56:36;;;;;;;46.30;24.20;;;2.70;99.90;;;;;;4940469;28;20053;-71
2023/01/25 11:59:25;;;;;;;45.75;22.13;;;2.70;99.90;;;;;;4948300;28;20384;-71
2023/01/25 12:02:08;;;;;;;48.70;23.65;;;2.70;99.90;;;;;;4948932;29;20039;-71
2023/01/25 12:05:02;;;;;;;45.65;22.83;;;2.70;99.90;;;;;;4939770;29;20042;-71
2023/01/25 12:07:43;;;;;;;44.88;23.90;;;2.70;99.90;;;;;;4945666;29;20078;-71
2023/01/25 12:10:30;;;;;;;47.97;23.42;;;2.70;99.90;;;;;;4939100;29;20055;-71
2023/01/25 12:13:19;;;;;;;45.22;23.27;;;2.70;99.90;;;;;;4936260;28;20083;-71
2023/01/25 12:15:54;;;;;;;48.30;24.25;;;2.70;99.90;;;;;;4939501;29;20604;-71
2023/01/25 12:18:38;;;;;;;44.08;22.25;;;2.70;99.90;;;;;;4948065;29;20051;-71
2023/01/25 12:21:46;;;;;;;47.03;24.38;;;2.70;99.90;;;;;;4933972;29;20499;-71
2023/01/25 12:24:32;;;;;;;46.07;24.40;;;2.70;99.90;;;;;;4912849;29;20161;-71
2023/01/25 12:27:24;;;;;;;45.70;22.65;;;2.70;99.90;;;;;;4933971;29;20455;-71
2023/01/25 12:29:59;;;;;;;48.28;23.85;;;2.80;99.90;;;;;;4948459;29;20039;-71
2023/01/25 12:32:48;;;;;;;45.95;22.17;;;2.80;99.90;;;;;;4948715;29;20454;-71
2023/01/25 12:35:32;;;;;;;42.30;22.00;;;2.80;99.90;;;;;;4945753;29;20050;-72
2023/01/25 12:38:07;;;;;;;42.95;22.45;;;2.80;99.90;;;;;;4948520;29;20051;-71
2023/01/25 12:41:01;;;;;;;43.88;22.75;;;2.80;99.90;;;;;;4943137;29;20419;-71
2023/01/25 12:43:40;;;;;;;44.30;22.73;;;2.80;99.90;;;;;;4933645;29;20039;-71
2023/01/25 12:46:20;;;;;;;46.67;23.25;;;2.80;99.90;;;;;;4935510;29;20079;-72
2023/01/25 12:48:52;;;;;;;46.58;23.05;;;2.80;99.90;;;;;;4916755;29;20420;-71
2023/01/25 12:51:20;;;;;;;42.95;22.73;;;2.80;99.90;;;;;;4946094;29;20063;-73
2023/01/25 12:53:47;;;;;;;44.53;22.38;;;2.80;99.90;;;;;;4942562;29;20127;-72
2023/01/25 12:56:42;;;;;;;39.83;20.90;;;2.80;99.90;;;;;;4921930;29;20122;-71
2023/01/25 12:59:32;;;;;;;44.38;22.73;;;2.90;99.90;;;;;;4947464;29;20043;-71
2023/01/25 13:02:39;;;;;;;45.92;22.48;;;2.80;99.90;;;;;;4944427;29;20050;-71
2023/01/25 13:05:22;;;;;;;43.92;21.42;;;2.80;99.90;;;;;;4946529;29;20457;-72
2023/01/25 13:08:13;;;;;;;48.78;23.15;;;2.80;99.90;;;;;;4925586;29;20460;-72